createdAt,value
2019-03-20T00:27:06.526Z,35.85
2019-03-20T00:57:10.394Z,38.78
2019-03-20T01:27:14.252Z,37.58
2019-03-20T01:57:18.110Z,44.30
2019-03-20T02:27:21.834Z,41.77
2019-03-20T02:57:25.557Z,33.65
2019-03-20T03:27:29.253Z,32.30
2019-03-20T03:57:33.051Z,28.00
2019-03-20T04:27:36.965Z,28.83
2019-03-20T04:57:40.947Z,28.75
2019-03-20T05:27:44.934Z,26.12
2019-03-20T05:57:48.711Z,30.43
2019-03-20T06:27:53.097Z,24.37
2019-03-20T06:57:57.211Z,16.90
2019-03-20T07:28:01.038Z,10.05
2019-03-20T07:58:05.185Z,8.13
2019-03-20T08:28:08.953Z,7.58
2019-03-20T08:58:12.738Z,6.78
2019-03-20T09:28:16.517Z,5.97
2019-03-20T09:58:21.682Z,5.42
2019-03-20T10:28:25.438Z,5.00
2019-03-20T10:58:29.319Z,3.83
2019-03-20T11:28:33.059Z,4.28
2019-03-20T11:58:36.871Z,3.00
2019-03-20T12:28:40.703Z,3.77
2019-03-20T12:58:44.486Z,4.92
2019-03-20T13:28:48.323Z,3.87
2019-03-20T13:58:52.487Z,4.10
2019-03-20T14:28:56.214Z,4.08
2019-03-20T14:59:00.732Z,4.20
2019-03-20T15:29:05.567Z,3.50
2019-03-20T15:59:09.481Z,4.60
2019-03-20T16:29:13.500Z,6.33
2019-03-20T16:59:18.715Z,15.45
2019-03-20T17:29:22.622Z,16.60
2019-03-20T17:59:26.440Z,30.40
2019-03-20T18:29:31.003Z,27.37
2019-03-20T18:59:35.070Z,39.23
2019-03-20T19:29:38.891Z,32.45
2019-03-20T19:59:42.755Z,39.58
2019-03-20T20:29:46.665Z,38.23
2019-03-20T20:59:50.617Z,34.98
2019-03-20T21:30:13.871Z,33.33
2019-03-20T22:00:52.701Z,30.82
2019-03-20T23:01:01.432Z,36.88
2019-03-20T23:31:05.350Z,33.45
